createdAt,value
2022-12-18T00:01:53.665Z,29.17
2022-12-18T00:04:23.403Z,30.87
2022-12-18T00:06:51.980Z,31.03
2022-12-18T00:09:21.462Z,30.73
2022-12-18T00:11:54.678Z,29.60
2022-12-18T00:14:21.648Z,33.17
2022-12-18T00:16:48.699Z,36.93
2022-12-18T00:19:15.931Z,32.30
2022-12-18T00:21:49.357Z,30.63
2022-12-18T00:24:18.518Z,32.47
2022-12-18T00:26:49.528Z,35.20
2022-12-18T00:29:19.123Z,32.97
2022-12-18T00:31:48.755Z,35.03
2022-12-18T00:34:16.312Z,35.00
2022-12-18T00:36:45.652Z,33.00
2022-12-18T00:39:17.775Z,34.57
2022-12-18T00:42:05.731Z,35.00
2022-12-18T00:44:32.906Z,35.50
2022-12-18T00:47:00.092Z,32.73
2022-12-18T00:49:34.535Z,32.37
2022-12-18T00:52:02.513Z,33.47
2022-12-18T00:54:30.268Z,33.17
2022-12-18T00:57:00.447Z,36.83
2022-12-18T01:02:15.966Z,30.07
2022-12-18T01:04:42.895Z,36.77
2022-12-18T01:07:09.855Z,33.00
2022-12-18T01:09:36.761Z,32.70
2022-12-18T01:12:05.749Z,34.80
2022-12-18T01:14:32.694Z,33.03
2022-12-18T01:16:59.593Z,32.27
2022-12-18T01:19:26.489Z,34.97
2022-12-18T01:21:53.340Z,33.40
2022-12-18T01:24:20.162Z,32.90
2022-12-18T01:26:47.067Z,34.23
2022-12-18T01:29:15.314Z,34.93
2022-12-18T01:31:42.558Z,31.63
2022-12-18T01:34:10.385Z,32.07
2022-12-18T01:36:42.244Z,32.37
2022-12-18T01:39:12.370Z,32.87
2022-12-18T01:41:58.620Z,32.30
2022-12-18T01:45:02.268Z,31.30
2022-12-18T01:47:37.790Z,29.73
2022-12-18T01:50:09.324Z,29.00
2022-12-18T01:52:38.349Z,28.50
2022-12-18T01:55:07.098Z,30.97
2022-12-18T01:57:36.391Z,29.60
2022-12-18T02:00:07.304Z,28.00
2022-12-18T02:02:35.957Z,29.33
2022-12-18T02:07:56.295Z,28.93
2022-12-18T02:10:28.781Z,27.27
2022-12-18T02:13:02.640Z,28.60
2022-12-18T02:18:08.839Z,23.97
2022-12-18T02:20:40.950Z,25.63
2022-12-18T02:23:21.129Z,30.77
2022-12-18T02:26:08.837Z,29.40
2022-12-18T02:28:41.157Z,30.33
2022-12-18T02:31:11.879Z,28.60
2022-12-18T02:33:41.702Z,29.57
2022-12-18T02:36:11.740Z,30.23
2022-12-18T02:38:39.415Z,28.70
2022-12-18T02:41:08.645Z,32.37
2022-12-18T02:43:35.562Z,29.77
2022-12-18T02:46:30.993Z,29.10
2022-12-18T02:49:05.917Z,28.37
2022-12-18T02:51:40.827Z,29.63
2022-12-18T02:54:11.808Z,28.67
2022-12-18T02:56:47.129Z,30.20
2022-12-18T02:59:16.710Z,28.13
2022-12-18T03:01:53.374Z,29.97
2022-12-18T03:04:27.875Z,29.63
2022-12-18T03:06:58.119Z,27.97
2022-12-18T03:09:31.492Z,28.57
2022-12-18T03:12:23.665Z,26.25
2022-12-18T03:14:55.486Z,28.73
2022-12-18T03:17:26.463Z,27.97
2022-12-18T03:19:54.550Z,29.33
2022-12-18T03:22:24.072Z,28.90
2022-12-18T03:24:52.582Z,29.57
2022-12-18T03:27:23.487Z,30.10
2022-12-18T03:29:54.378Z,27.03
2022-12-18T03:32:27.474Z,30.30
2022-12-18T03:34:56.349Z,28.20
2022-12-18T03:37:23.206Z,31.40
2022-12-18T03:39:50.217Z,32.47
2022-12-18T03:42:20.518Z,30.80
2022-12-18T03:44:58.742Z,29.50
2022-12-18T03:47:29.707Z,28.10
2022-12-18T03:50:02.526Z,31.03
2022-12-18T03:52:35.976Z,29.27
2022-12-18T03:55:04.495Z,31.98
2022-12-18T03:57:33.652Z,32.47
2022-12-18T04:00:06.144Z,32.23
2022-12-18T04:02:35.303Z,33.97
2022-12-18T04:05:06.060Z,30.53
2022-12-18T04:07:34.110Z,30.27
2022-12-18T04:10:02.898Z,29.70
2022-12-18T04:12:30.693Z,32.77
2022-12-18T04:14:57.547Z,31.97
2022-12-18T04:17:25.982Z,32.33
2022-12-18T04:19:52.793Z,32.07
2022-12-18T04:22:19.703Z,30.83
2022-12-18T04:24:47.452Z,30.80
2022-12-18T04:27:14.356Z,30.60
2022-12-18T04:29:41.865Z,30.60
2022-12-18T04:32:09.069Z,30.20
2022-12-18T04:34:37.359Z,29.10
2022-12-18T04:37:04.141Z,29.40
2022-12-18T04:39:31.025Z,27.57
2022-12-18T04:41:57.852Z,30.17
2022-12-18T04:44:24.639Z,28.60
2022-12-18T04:46:51.742Z,27.90
2022-12-18T04:49:18.625Z,26.80
2022-12-18T04:51:46.790Z,28.97
2022-12-18T04:54:13.580Z,29.83
2022-12-18T04:56:40.975Z,29.63
2022-12-18T04:59:07.765Z,26.30
2022-12-18T05:01:35.317Z,30.77
2022-12-18T05:04:02.499Z,27.27
2022-12-18T05:06:29.323Z,27.87
2022-12-18T05:08:58.012Z,28.50
2022-12-18T05:11:24.854Z,31.30
2022-12-18T05:13:51.766Z,27.37
2022-12-18T05:16:18.784Z,28.13
2022-12-18T05:18:45.632Z,28.93
2022-12-18T05:21:12.461Z,31.63
2022-12-18T05:23:39.622Z,27.73
2022-12-18T05:26:08.881Z,25.93
2022-12-18T05:28:36.795Z,25.63
2022-12-18T05:31:05.088Z,28.37
2022-12-18T05:33:34.077Z,28.47
2022-12-18T05:36:05.496Z,25.47
2022-12-18T05:38:34.087Z,24.53
2022-12-18T05:41:00.965Z,27.00
2022-12-18T05:43:29.809Z,24.50
2022-12-18T05:45:57.905Z,25.83
2022-12-18T05:48:24.849Z,22.53
2022-12-18T05:50:52.233Z,24.00
2022-12-18T05:53:21.027Z,23.77
2022-12-18T05:55:48.295Z,25.63
2022-12-18T05:58:15.884Z,24.43
2022-12-18T06:00:46.008Z,22.33
2022-12-18T06:03:14.636Z,23.03
2022-12-18T06:05:44.809Z,23.93
2022-12-18T06:08:12.592Z,21.20
2022-12-18T06:10:39.625Z,22.60
2022-12-18T06:13:07.287Z,23.20
2022-12-18T06:15:37.104Z,23.13
2022-12-18T06:18:05.434Z,22.57
2022-12-18T06:20:33.815Z,23.97
2022-12-18T06:23:01.018Z,21.90
2022-12-18T06:25:28.063Z,21.50
2022-12-18T06:27:54.938Z,22.57
2022-12-18T06:30:21.910Z,21.90
2022-12-18T06:32:54.650Z,20.33
2022-12-18T06:35:25.030Z,20.20
2022-12-18T06:37:51.933Z,21.93
2022-12-18T06:40:19.576Z,22.33
2022-12-18T06:42:46.457Z,19.27
2022-12-18T06:45:17.677Z,21.20
2022-12-18T06:47:44.909Z,20.67
2022-12-18T06:50:12.188Z,21.13
2022-12-18T06:52:41.314Z,21.17
2022-12-18T06:55:09.301Z,19.33
2022-12-18T06:57:36.474Z,19.97
2022-12-18T07:00:04.689Z,17.73
2022-12-18T07:02:31.608Z,21.10
2022-12-18T07:05:10.741Z,17.77
2022-12-18T07:07:38.461Z,19.10
2022-12-18T07:10:07.743Z,17.73
2022-12-18T07:12:45.541Z,17.50
2022-12-18T07:15:18.348Z,16.73
2022-12-18T07:17:47.676Z,17.77
2022-12-18T07:20:14.552Z,16.27
2022-12-18T07:22:41.571Z,20.97
2022-12-18T07:25:10.382Z,16.33
2022-12-18T07:27:37.244Z,15.50
2022-12-18T07:30:05.468Z,16.80
2022-12-18T07:32:32.410Z,16.20
2022-12-18T07:34:59.224Z,17.93
2022-12-18T07:37:26.142Z,18.20
2022-12-18T07:39:53.032Z,16.93
2022-12-18T07:42:33.769Z,16.53
2022-12-18T07:45:01.446Z,15.53
2022-12-18T07:47:28.547Z,16.70
2022-12-18T07:49:56.342Z,16.73
2022-12-18T07:52:26.141Z,17.20
2022-12-18T07:54:53.317Z,17.23
2022-12-18T07:57:49.018Z,15.60
2022-12-18T08:00:09.907Z,15.77
2022-12-18T08:02:36.888Z,16.70
2022-12-18T08:05:04.350Z,18.47
2022-12-18T08:07:33.613Z,13.97
2022-12-18T08:10:03.608Z,14.87
2022-12-18T08:12:32.373Z,14.17
2022-12-18T08:14:59.217Z,17.83
2022-12-18T08:17:26.117Z,15.27
2022-12-18T08:19:53.135Z,15.33
2022-12-18T08:26:29.821Z,13.93
2022-12-18T08:31:46.423Z,13.73
2022-12-18T08:42:52.856Z,13.13
2022-12-18T08:45:19.696Z,13.60
2022-12-18T08:47:47.921Z,15.80
2022-12-18T08:50:15.761Z,14.03
2022-12-18T08:52:42.635Z,14.13
2022-12-18T08:55:11.015Z,15.73
2022-12-18T08:57:37.854Z,15.57
2022-12-18T09:00:05.796Z,14.27
2022-12-18T09:02:32.668Z,14.77
2022-12-18T09:05:00.948Z,15.17
2022-12-18T09:07:27.780Z,15.73
2022-12-18T09:09:54.676Z,14.10
2022-12-18T09:12:21.589Z,14.40
2022-12-18T09:14:48.544Z,16.37
2022-12-18T09:17:15.500Z,16.10
2022-12-18T09:19:42.604Z,14.43
2022-12-18T09:22:10.835Z,18.97
2022-12-18T09:24:37.666Z,16.23
2022-12-18T09:27:04.541Z,21.60
2022-12-18T09:29:31.565Z,39.97
2022-12-18T09:31:58.397Z,19.70
2022-12-18T09:34:25.481Z,14.27
2022-12-18T09:36:52.411Z,17.60
2022-12-18T09:39:24.151Z,14.37
2022-12-18T09:41:54.687Z,14.80
2022-12-18T09:44:26.219Z,14.70
2022-12-18T09:47:00.723Z,14.17
2022-12-18T09:49:31.973Z,14.50
2022-12-18T09:52:05.085Z,13.07
2022-12-18T09:54:38.095Z,15.38
2022-12-18T09:57:05.742Z,13.18
2022-12-18T09:59:37.815Z,13.87
2022-12-18T10:02:15.957Z,14.87
2022-12-18T10:04:43.344Z,14.83
2022-12-18T10:07:17.567Z,14.33
2022-12-18T10:09:54.789Z,12.77
2022-12-18T10:12:31.177Z,12.23
2022-12-18T10:15:04.199Z,13.07
2022-12-18T10:17:41.671Z,13.05
2022-12-18T10:20:17.091Z,15.20
2022-12-18T10:25:26.079Z,12.70
2022-12-18T10:27:56.256Z,14.33
2022-12-18T10:30:25.329Z,12.97
2022-12-18T10:32:52.834Z,14.20
2022-12-18T10:35:22.333Z,13.67
2022-12-18T10:38:04.692Z,13.20
2022-12-18T10:40:33.477Z,13.30
2022-12-18T10:43:11.951Z,14.80
2022-12-18T10:45:38.902Z,13.27
2022-12-18T10:48:18.260Z,13.47
2022-12-18T10:51:10.275Z,13.20
2022-12-18T10:53:38.165Z,14.20
2022-12-18T10:56:07.998Z,12.90
2022-12-18T10:58:37.798Z,14.03
2022-12-18T11:01:07.604Z,13.83
2022-12-18T11:03:37.242Z,14.33
2022-12-18T11:06:06.944Z,14.07
2022-12-18T11:08:33.844Z,15.47
2022-12-18T11:11:00.950Z,12.77
2022-12-18T11:13:31.755Z,14.27
2022-12-18T11:15:59.172Z,12.33
2022-12-18T11:18:29.054Z,13.47
2022-12-18T11:20:59.121Z,13.47
2022-12-18T11:23:27.063Z,12.33
2022-12-18T11:25:56.872Z,15.03
2022-12-18T11:28:35.394Z,13.47
2022-12-18T11:31:24.454Z,13.00
2022-12-18T11:34:27.476Z,13.50
2022-12-18T11:36:47.792Z,14.60
2022-12-18T11:39:22.443Z,15.13
2022-12-18T11:42:12.846Z,13.73
2022-12-18T11:44:47.300Z,15.93
2022-12-18T11:47:26.834Z,14.63
2022-12-18T11:49:56.372Z,16.20
2022-12-18T11:52:27.834Z,15.73
2022-12-18T11:54:59.656Z,16.43
2022-12-18T11:57:36.640Z,14.27
2022-12-18T12:00:13.586Z,15.93
2022-12-18T12:03:15.250Z,14.80
2022-12-18T12:05:58.193Z,17.17
2022-12-18T12:08:37.114Z,16.00
2022-12-18T12:11:10.579Z,16.43
2022-12-18T12:13:49.171Z,17.50
2022-12-18T12:16:25.485Z,14.07
2022-12-18T12:19:09.177Z,14.33
2022-12-18T12:21:41.501Z,17.58
2022-12-18T12:24:26.018Z,16.13
2022-12-18T12:27:02.714Z,17.40
2022-12-18T12:29:44.511Z,15.37
2022-12-18T12:32:30.910Z,16.20
2022-12-18T12:35:11.699Z,18.80
2022-12-18T12:37:49.090Z,19.03
2022-12-18T12:40:50.839Z,19.60
2022-12-18T12:43:22.164Z,18.90
2022-12-18T12:45:52.010Z,17.27
2022-12-18T12:48:34.019Z,18.43
2022-12-18T12:51:03.646Z,18.60
2022-12-18T12:53:36.963Z,19.67
2022-12-18T12:56:06.652Z,20.70
2022-12-18T12:58:43.062Z,18.67
2022-12-18T13:01:23.083Z,19.17
2022-12-18T13:03:57.948Z,19.60
2022-12-18T13:06:41.587Z,21.33
2022-12-18T13:09:11.595Z,20.27
2022-12-18T13:12:00.428Z,19.63
2022-12-18T13:14:33.696Z,20.67
2022-12-18T13:17:18.207Z,19.92
2022-12-18T13:19:50.299Z,19.23
2022-12-18T13:22:25.087Z,19.30
2022-12-18T13:24:52.429Z,19.60
2022-12-18T13:28:04.432Z,20.43
2022-12-18T13:30:54.107Z,20.37
2022-12-18T13:34:24.480Z,19.20
2022-12-18T13:36:37.348Z,20.40
2022-12-18T13:39:21.296Z,19.70
2022-12-18T13:41:53.778Z,20.23
2022-12-18T13:44:40.218Z,19.27
2022-12-18T13:47:29.558Z,20.17
2022-12-18T13:49:57.997Z,19.80
2022-12-18T13:52:28.884Z,20.97
2022-12-18T13:54:58.901Z,20.70
2022-12-18T13:57:31.094Z,19.93
2022-12-18T13:59:59.010Z,20.57
2022-12-18T14:02:27.695Z,19.77
2022-12-18T14:04:55.404Z,21.20
2022-12-18T14:07:24.004Z,20.27
2022-12-18T14:10:01.972Z,19.77
2022-12-18T14:12:54.453Z,19.33
2022-12-18T14:15:28.432Z,20.43
2022-12-18T14:17:58.619Z,19.27
2022-12-18T14:20:26.795Z,19.57
2022-12-18T14:22:53.929Z,21.63
2022-12-18T14:25:24.359Z,20.67
2022-12-18T14:27:53.471Z,21.90
2022-12-18T14:30:28.655Z,21.53
2022-12-18T14:33:03.612Z,19.50
2022-12-18T14:35:30.486Z,22.57
2022-12-18T14:38:12.310Z,21.37
2022-12-18T14:40:40.673Z,20.47
2022-12-18T14:43:10.594Z,21.13
2022-12-18T14:45:43.242Z,19.20
2022-12-18T14:48:19.040Z,20.47
2022-12-18T14:50:59.568Z,19.67
2022-12-18T14:53:34.966Z,20.33
2022-12-18T14:56:04.647Z,19.77
2022-12-18T14:58:31.663Z,21.67
2022-12-18T15:00:58.752Z,19.97
2022-12-18T15:03:26.446Z,19.67
2022-12-18T15:05:54.010Z,20.83
2022-12-18T15:08:38.026Z,21.07
2022-12-18T15:11:33.301Z,17.02
2022-12-18T15:14:01.649Z,21.60
2022-12-18T15:16:28.687Z,20.67
2022-12-18T15:18:55.668Z,20.87
2022-12-18T15:21:22.925Z,18.97
2022-12-18T15:23:52.487Z,20.27
2022-12-18T15:26:21.259Z,19.97
2022-12-18T15:28:51.395Z,19.33
2022-12-18T15:31:30.356Z,20.17
2022-12-18T15:34:21.565Z,21.00
2022-12-18T15:36:48.508Z,19.67
2022-12-18T15:39:15.371Z,19.87
2022-12-18T15:42:02.331Z,20.00
2022-12-18T15:44:30.632Z,20.83
2022-12-18T15:46:57.575Z,20.60
2022-12-18T15:49:24.677Z,21.30
2022-12-18T15:51:54.471Z,19.53
2022-12-18T15:54:42.394Z,20.33
2022-12-18T15:57:25.978Z,19.77
2022-12-18T15:59:57.499Z,20.45
2022-12-18T16:02:25.561Z,20.47
2022-12-18T16:04:53.732Z,19.33
2022-12-18T16:07:25.583Z,19.87
2022-12-18T16:09:53.190Z,21.73
2022-12-18T16:12:23.433Z,20.03
2022-12-18T16:14:50.288Z,20.03
2022-12-18T16:17:18.951Z,20.63
2022-12-18T16:19:46.077Z,18.40
2022-12-18T16:22:21.060Z,20.83
2022-12-18T16:24:47.956Z,19.93
2022-12-18T16:27:14.948Z,18.03
2022-12-18T16:29:41.858Z,19.80
2022-12-18T16:32:14.037Z,21.20
2022-12-18T16:34:43.227Z,19.50
2022-12-18T16:37:12.178Z,20.50
2022-12-18T16:39:40.205Z,19.47
2022-12-18T16:42:13.620Z,21.33
2022-12-18T16:44:40.500Z,20.83
2022-12-18T16:47:08.753Z,19.97
2022-12-18T16:49:38.371Z,21.10
2022-12-18T16:52:07.156Z,21.63
2022-12-18T16:54:36.595Z,21.60
2022-12-18T16:57:05.243Z,20.60
2022-12-18T16:59:36.285Z,20.47
2022-12-18T17:02:06.180Z,18.60
2022-12-18T17:04:33.768Z,19.40
2022-12-18T17:07:00.576Z,21.00
2022-12-18T17:09:28.758Z,21.57
2022-12-18T17:11:56.339Z,21.83
2022-12-18T17:14:24.638Z,21.23
2022-12-18T17:17:19.162Z,19.90
2022-12-18T17:19:38.924Z,21.00
2022-12-18T17:22:05.912Z,20.53
2022-12-18T17:24:35.387Z,18.53
2022-12-18T17:27:02.854Z,20.77
2022-12-18T17:29:29.874Z,20.57
2022-12-18T17:31:56.675Z,22.67
2022-12-18T17:34:24.901Z,20.60
2022-12-18T17:36:51.749Z,20.67
2022-12-18T17:39:20.692Z,19.03
2022-12-18T17:41:49.944Z,20.77
2022-12-18T17:44:17.824Z,21.33
2022-12-18T17:46:46.207Z,19.30
2022-12-18T17:49:14.206Z,20.93
2022-12-18T17:51:43.102Z,21.23
2022-12-18T17:54:11.115Z,21.00
2022-12-18T17:56:38.946Z,21.07
2022-12-18T17:59:07.557Z,22.30
2022-12-18T18:01:38.383Z,20.13
2022-12-18T18:04:09.623Z,22.67
2022-12-18T18:06:39.123Z,19.23
2022-12-18T18:09:06.360Z,20.20
2022-12-18T18:12:05.018Z,20.67
2022-12-18T18:14:33.576Z,20.77
2022-12-18T18:17:04.137Z,21.93
2022-12-18T18:19:32.982Z,21.13
2022-12-18T18:22:00.063Z,21.50
2022-12-18T18:24:30.073Z,23.10
2022-12-18T18:26:59.504Z,22.07
2022-12-18T18:29:27.825Z,21.03
2022-12-18T18:31:57.514Z,22.03
2022-12-18T18:34:25.984Z,21.30
2022-12-18T18:36:53.130Z,23.50
2022-12-18T18:39:20.331Z,21.37
2022-12-18T18:41:48.569Z,22.60
2022-12-18T18:44:16.193Z,20.97
2022-12-18T18:46:43.169Z,20.17
2022-12-18T18:49:11.846Z,19.60
2022-12-18T18:51:38.719Z,22.80
2022-12-18T18:54:05.683Z,23.00
2022-12-18T18:59:21.283Z,20.47
2022-12-18T19:01:52.835Z,20.37
2022-12-18T19:04:21.315Z,23.27
2022-12-18T19:06:49.110Z,20.90
2022-12-18T19:09:16.487Z,21.30
2022-12-18T19:12:01.869Z,22.17
2022-12-18T19:14:28.930Z,20.73
2022-12-18T19:16:55.915Z,22.73
2022-12-18T19:19:25.564Z,21.83
2022-12-18T19:21:52.523Z,22.43
2022-12-18T19:24:21.372Z,22.00
2022-12-18T19:26:49.286Z,25.57
2022-12-18T19:29:16.315Z,21.87
2022-12-18T19:31:43.247Z,22.13
2022-12-18T19:34:12.192Z,23.87
2022-12-18T19:36:41.500Z,23.37
2022-12-18T19:39:11.273Z,22.63
2022-12-18T19:41:38.514Z,20.70
2022-12-18T19:44:08.177Z,21.47
2022-12-18T19:46:36.091Z,21.97
2022-12-18T19:49:05.212Z,22.90
2022-12-18T19:51:32.799Z,23.57
2022-12-18T19:54:02.106Z,22.13
2022-12-18T19:56:31.522Z,21.40
2022-12-18T19:58:58.852Z,22.43
2022-12-18T20:01:27.964Z,20.87
2022-12-18T20:03:55.880Z,21.50
2022-12-18T20:06:26.297Z,22.20
2022-12-18T20:08:59.074Z,21.67
2022-12-18T20:11:29.152Z,20.80
2022-12-18T20:13:56.119Z,21.67
2022-12-18T20:16:23.021Z,22.17
2022-12-18T20:18:49.877Z,20.23
2022-12-18T20:21:16.699Z,21.47
2022-12-18T20:23:44.208Z,20.80
2022-12-18T20:26:11.323Z,21.10
2022-12-18T20:28:40.414Z,21.93
2022-12-18T20:31:13.453Z,20.90
2022-12-18T20:33:42.009Z,20.63
2022-12-18T20:36:13.807Z,21.57
2022-12-18T20:38:42.396Z,20.20
2022-12-18T20:41:11.812Z,19.97
2022-12-18T20:43:40.350Z,20.87
2022-12-18T20:46:10.799Z,21.70
2022-12-18T20:48:37.643Z,19.97
2022-12-18T20:51:06.313Z,21.33
2022-12-18T20:53:33.653Z,20.90
2022-12-18T20:56:02.230Z,18.80
2022-12-18T20:58:29.094Z,21.33
2022-12-18T21:01:06.966Z,21.40
2022-12-18T21:03:37.069Z,19.50
2022-12-18T21:06:04.432Z,19.83
2022-12-18T21:08:31.906Z,19.97
2022-12-18T21:11:32.514Z,19.60
2022-12-18T21:14:00.017Z,17.87
2022-12-18T21:16:28.308Z,19.37
2022-12-18T21:18:55.677Z,18.23
2022-12-18T21:21:26.362Z,20.43
2022-12-18T21:23:53.604Z,18.93
2022-12-18T21:26:22.533Z,17.10
2022-12-18T21:28:55.171Z,19.47
2022-12-18T21:31:23.419Z,18.57
2022-12-18T21:33:54.587Z,19.63
2022-12-18T21:36:26.812Z,19.70
2022-12-18T21:38:54.651Z,19.57
2022-12-18T21:41:42.598Z,18.90
2022-12-18T21:44:12.322Z,17.67
2022-12-18T21:46:41.225Z,18.03
2022-12-18T21:49:10.176Z,19.70
2022-12-18T21:51:37.374Z,18.23
2022-12-18T21:54:04.734Z,17.93
2022-12-18T21:56:47.132Z,17.93
2022-12-18T21:59:15.830Z,19.57
2022-12-18T22:01:42.817Z,18.20
2022-12-18T22:04:11.425Z,19.83
2022-12-18T22:06:38.551Z,16.47
2022-12-18T22:09:05.681Z,20.73
2022-12-18T22:11:32.986Z,19.23
2022-12-18T22:13:59.804Z,18.37
2022-12-18T22:16:26.965Z,18.53
2022-12-18T22:18:54.120Z,18.83
2022-12-18T22:21:29.355Z,18.43
2022-12-18T22:23:57.962Z,18.83
2022-12-18T22:26:26.361Z,18.23
2022-12-18T22:29:11.960Z,18.93
2022-12-18T22:31:39.236Z,15.33
2022-12-18T22:34:06.834Z,17.80
2022-12-18T22:36:39.828Z,17.07
2022-12-18T22:39:09.551Z,19.70
2022-12-18T22:41:36.334Z,17.20
2022-12-18T22:44:03.397Z,17.80
2022-12-18T22:46:33.645Z,17.47
2022-12-18T22:49:00.588Z,16.47
2022-12-18T22:51:27.417Z,16.57
2022-12-18T22:53:55.650Z,16.83
2022-12-18T22:56:22.714Z,17.80
2022-12-18T22:58:50.637Z,18.17
2022-12-18T23:01:22.970Z,16.23
2022-12-18T23:03:50.886Z,16.33
2022-12-18T23:06:18.786Z,15.97
2022-12-18T23:08:47.905Z,17.57
2022-12-18T23:11:19.773Z,16.57
2022-12-18T23:13:46.702Z,15.47
2022-12-18T23:16:16.270Z,16.70
2022-12-18T23:18:44.017Z,15.77
2022-12-18T23:21:12.709Z,16.03
2022-12-18T23:23:40.197Z,15.40
2022-12-18T23:26:09.301Z,16.03
2022-12-18T23:28:38.523Z,16.33
2022-12-18T23:31:06.853Z,15.57
2022-12-18T23:33:34.241Z,16.47
2022-12-18T23:36:02.195Z,15.50
2022-12-18T23:38:29.212Z,13.70
2022-12-18T23:40:56.784Z,13.87
2022-12-18T23:43:23.810Z,15.67
2022-12-18T23:45:55.748Z,15.40
2022-12-18T23:48:23.021Z,15.17
2022-12-18T23:50:49.829Z,16.03
2022-12-18T23:53:16.696Z,16.53
2022-12-18T23:55:44.779Z,14.83
2022-12-18T23:58:17.050Z,16.23
